Time;durP1;ratioP1;P1;durP2;ratioP2;P2;SDS_P1;SDS_P2;PMS_P1;PMS_P2;Temp;Humidity;BMP_temperature;BMP_pressure;BME280_temperature;BME280_humidity;BME280_pressure;Samples;Min_cycle;Max_cycle;Signal;HPM_P1;HPM_P2
2023/05/31 00:01:50;;;;;;;;;4.50;4.50;;;;;21.83;40.83;101774.75;110245;1257;18049;-39
2023/05/31 00:04:18;;;;;;;;;4.00;4.00;;;;;21.83;40.84;101772.36;110253;1251;19959;-39
2023/05/31 00:06:45;;;;;;;;;4.00;4.00;;;;;21.84;41.05;101775.00;110279;1263;18193;-39
2023/05/31 00:09:13;;;;;;;;;5.00;5.00;;;;;21.83;41.11;101775.50;110315;1249;19695;-40
2023/05/31 00:11:40;;;;;;;;;;;;;;;21.84;41.03;101774.54;110273;1262;18898;-39
2023/05/31 00:14:07;;;;;;;;;4.00;4.00;;;;;21.83;41.04;101779.70;110238;1263;19543;-40
2023/05/31 00:16:35;;;;;;;;;5.00;4.00;;;;;21.82;40.97;101781.28;110205;1263;17930;-39
2023/05/31 00:19:02;;;;;;;;;4.50;4.50;;;;;21.82;41.07;101786.34;110206;1262;19212;-39
2023/05/31 00:21:30;;;;;;;;;4.00;4.00;;;;;21.81;40.90;101784.85;110226;1251;19608;-39
2023/05/31 00:23:57;;;;;;;;;7.00;5.00;;;;;21.81;41.13;101787.88;110219;1248;19533;-39
2023/05/31 00:26:25;;;;;;;;;5.00;5.00;;;;;21.79;41.16;101791.26;110239;1248;18565;-39
2023/05/31 00:28:52;;;;;;;;;4.00;4.00;;;;;21.76;41.20;101781.67;110246;1262;19256;-40
2023/05/31 00:31:19;;;;;;;;;7.50;6.00;;;;;21.75;41.34;101784.56;110245;1263;20897;-40
2023/05/31 00:33:47;;;;;;;;;4.00;4.00;;;;;21.76;41.45;101784.41;110255;1256;18586;-40
2023/05/31 00:36:14;;;;;;;;;5.00;4.33;;;;;21.75;41.51;101784.13;110247;1263;19217;-39
2023/05/31 00:38:42;;;;;;;;;7.33;7.33;;;;;21.76;41.42;101785.67;110241;1263;19229;-40
2023/05/31 00:41:09;;;;;;;;;4.33;4.33;;;;;21.75;41.53;101787.58;110209;1250;19989;-39
2023/05/31 00:43:36;;;;;;;;;5.00;5.00;;;;;21.78;41.32;101784.26;110198;1262;18185;-44
2023/05/31 00:46:04;;;;;;;;;11.00;7.00;;;;;21.79;41.28;101784.84;110260;1263;19166;-40
2023/05/31 00:48:31;;;;;;;;;5.00;5.00;;;;;21.77;41.34;101784.84;110219;1263;22627;-40
2023/05/31 00:50:59;;;;;;;;;4.33;4.33;;;;;21.76;41.52;101783.64;110253;1249;19981;-39
2023/05/31 00:53:26;;;;;;;;;5.00;5.00;;;;;21.77;41.36;101783.23;110215;1263;18721;-40
2023/05/31 00:55:54;;;;;;;;;4.00;4.00;;;;;21.77;41.41;101786.68;109700;1256;712775;-40
2023/05/31 00:58:21;;;;;;;;;7.00;5.00;;;;;21.76;41.37;101786.58;110259;1251;19618;-40
2023/05/31 01:00:48;;;;;;;;;8.00;7.00;;;;;21.76;41.20;101787.66;110210;1262;21950;-39
2023/05/31 01:03:16;;;;;;;;;5.00;5.00;;;;;21.77;41.38;101793.77;110207;1262;18796;-40
2023/05/31 01:05:45;;;;;;;;;7.00;7.00;;;;;21.76;41.48;101793.34;110212;1263;21864;-40
2023/05/31 01:08:14;;;;;;;;;4.33;4.33;;;;;21.75;41.51;101795.61;110242;1262;17870;-40
2023/05/31 01:10:41;;;;;;;;;5.00;5.00;;;;;21.73;41.49;101794.15;110223;1257;21523;-40
2023/05/31 01:13:09;;;;;;;;;7.00;5.00;;;;;21.73;41.44;101798.38;110240;1262;19553;-38
2023/05/31 01:15:36;;;;;;;;;8.00;7.00;;;;;21.74;41.42;101802.41;110220;1248;21830;-39
2023/05/31 01:18:03;;;;;;;;;4.00;4.00;;;;;21.74;41.38;101799.84;110276;1251;19989;-40
2023/05/31 01:20:31;;;;;;;;;7.00;7.00;;;;;21.74;41.47;101804.48;110315;1248;22079;-40
2023/05/31 01:22:59;;;;;;;;;5.00;5.00;;;;;21.74;41.21;101798.89;110305;1251;21522;-39
2023/05/31 01:25:26;;;;;;;;;4.67;4.00;;;;;21.72;41.34;101802.52;110279;1263;18571;-42
2023/05/31 01:27:54;;;;;;;;;5.00;4.00;;;;;21.72;41.33;101801.77;110224;1263;19585;-40
2023/05/31 01:30:21;;;;;;;;;5.00;5.00;;;;;21.72;41.03;101800.55;110251;1251;19406;-43
2023/05/31 01:32:48;;;;;;;;;7.50;7.50;;;;;21.71;41.12;101798.22;110264;1263;20145;-39
2023/05/31 01:35:16;;;;;;;;;8.00;6.00;;;;;21.69;40.96;101798.20;110241;1251;19695;-39
2023/05/31 01:37:45;;;;;;;;;5.00;5.00;;;;;21.71;41.05;101802.10;110214;1263;21551;-39
2023/05/31 01:40:12;;;;;;;;;5.00;5.00;;;;;21.70;40.87;101800.55;110252;1262;19919;-41
2023/05/31 01:42:40;;;;;;;;;4.67;4.67;;;;;21.69;40.83;101804.95;110231;1263;18787;-40
2023/05/31 01:45:07;;;;;;;;;5.00;5.00;;;;;21.69;40.75;101803.89;110248;1248;19251;-39
2023/05/31 01:47:35;;;;;;;;;5.00;4.00;;;;;21.69;40.74;101809.34;110261;1248;22029;-38
2023/05/31 01:50:02;;;;;;;;;4.00;4.00;;;;;21.68;40.67;101807.09;110277;1262;19573;-40
2023/05/31 01:52:29;;;;;;;;;5.00;5.00;;;;;21.67;40.67;101806.30;110295;1262;19555;-39
2023/05/31 01:54:57;;;;;;;;;7.00;5.00;;;;;21.66;40.63;101807.84;110272;1250;19991;-40
2023/05/31 01:57:24;;;;;;;;;5.00;4.00;;;;;21.67;40.47;101807.23;110240;1248;19624;-39
2023/05/31 01:59:52;;;;;;;;;5.00;5.00;;;;;21.65;40.61;101806.13;110231;1263;18483;-40
2023/05/31 02:02:19;;;;;;;;;6.00;6.00;;;;;21.65;40.49;101810.38;110224;1251;21524;-39
2023/05/31 02:04:47;;;;;;;;;5.00;5.00;;;;;21.64;40.32;101813.34;110210;1262;19529;-40
2023/05/31 02:07:16;;;;;;;;;6.00;6.00;;;;;21.63;40.47;101819.05;110244;1262;19255;-39
2023/05/31 02:09:43;;;;;;;;;5.00;4.50;;;;;21.64;40.28;101822.84;110181;1262;19022;-39
2023/05/31 02:12:11;;;;;;;;;5.00;4.00;;;;;21.63;40.30;101821.06;110176;1262;19567;-40
2023/05/31 02:14:38;;;;;;;;;5.00;5.00;;;;;21.63;40.08;101820.75;110244;1262;19117;-39
2023/05/31 02:17:06;;;;;;;;;4.50;4.50;;;;;21.60;40.14;101815.49;110244;1252;19903;-43
2023/05/31 02:19:33;;;;;;;;;5.67;5.00;;;;;21.61;40.13;101816.38;110245;1248;19566;-39
2023/05/31 02:22:01;;;;;;;;;7.00;5.00;;;;;21.60;40.09;101812.63;110231;1248;20312;-39
2023/05/31 02:24:28;;;;;;;;;7.00;5.00;;;;;21.60;40.09;101811.36;110208;1263;21976;-40
2023/05/31 02:26:56;;;;;;;;;7.00;7.00;;;;;21.59;39.96;101814.33;110221;1248;22651;-39
2023/05/31 02:29:24;;;;;;;;;5.00;4.00;;;;;21.59;39.90;101813.38;110231;1248;19366;-40
2023/05/31 02:31:51;;;;;;;;;7.00;7.00;;;;;21.59;39.90;101813.77;110220;1262;22243;-40
2023/05/31 02:34:19;;;;;;;;;5.00;5.00;;;;;21.58;39.89;101809.36;110232;1263;19577;-39
2023/05/31 02:36:46;;;;;;;;;4.50;4.00;;;;;21.58;39.84;101814.41;110261;1262;19238;-40
2023/05/31 02:39:14;;;;;;;;;7.00;5.00;;;;;21.58;39.89;101810.80;110235;1251;19974;-40
2023/05/31 02:41:42;;;;;;;;;7.00;5.00;;;;;21.57;39.72;101809.24;110217;1248;20656;-38
2023/05/31 02:44:09;;;;;;;;;5.00;5.00;;;;;21.57;39.60;101810.91;110263;1262;19513;-38
2023/05/31 02:46:37;;;;;;;;;6.00;5.00;;;;;21.56;39.65;101808.69;110229;1249;20067;-38
2023/05/31 02:49:06;;;;;;;;;7.00;7.00;;;;;21.56;39.78;101809.20;110223;1263;22117;-38
2023/05/31 02:51:33;;;;;;;;;4.50;4.00;;;;;21.55;39.68;101808.73;110241;1262;21935;-40
2023/05/31 02:54:01;;;;;;;;;7.00;7.00;;;;;21.55;39.59;101806.58;110223;1262;19953;-38
2023/05/31 02:56:28;;;;;;;;;5.00;5.00;;;;;21.54;39.49;101802.14;110205;1262;19745;-39
2023/05/31 02:58:56;;;;;;;;;5.00;5.00;;;;;21.54;39.62;101808.14;110231;1251;18081;-40
2023/05/31 03:01:23;;;;;;;;;5.00;5.00;;;;;21.54;39.71;101807.63;110215;1251;19988;-40
2023/05/31 03:03:51;;;;;;;;;7.00;7.00;;;;;21.52;39.53;101806.54;110205;1263;18176;-44
2023/05/31 03:06:19;;;;;;;;;7.50;6.00;;;;;21.52;39.57;101807.05;110228;1262;19297;-38
2023/05/31 03:08:46;;;;;;;;;7.00;7.00;;;;;21.53;39.58;101805.56;110205;1248;19934;-40
2023/05/31 03:11:14;;;;;;;;;10.00;8.00;;;;;21.52;39.48;101808.88;110251;1248;18182;-40
2023/05/31 03:13:41;;;;;;;;;5.00;4.00;;;;;21.52;39.66;101805.66;110224;1262;18396;-41
2023/05/31 03:16:09;;;;;;;;;5.00;5.00;;;;;21.52;39.70;101807.23;110202;1251;21643;-39
2023/05/31 03:18:36;;;;;;;;;7.00;7.00;;;;;21.51;39.56;101808.58;110245;1262;19535;-41
2023/05/31 03:21:04;;;;;;;;;7.00;5.00;;;;;21.51;39.49;101805.14;110240;1248;19188;-40
2023/05/31 03:23:31;;;;;;;;;4.00;4.00;;;;;21.51;39.69;101807.33;110240;1262;18700;-41
2023/05/31 03:25:58;;;;;;;;;8.00;8.00;;;;;21.52;39.40;101804.92;110244;1262;18184;-39
2023/05/31 03:28:26;;;;;;;;;5.67;5.00;;;;;21.51;39.58;101803.18;110238;1262;19264;-39
2023/05/31 03:30:53;;;;;;;;;7.50;7.00;;;;;21.52;39.57;101802.74;110227;1249;19915;-39
2023/05/31 03:33:21;;;;;;;;;7.00;5.00;;;;;21.50;39.61;101807.06;110244;1262;19531;-40
2023/05/31 03:35:48;;;;;;;;;5.00;5.00;;;;;21.51;39.64;101805.02;110240;1248;17869;-40
2023/05/31 03:38:16;;;;;;;;;7.00;7.00;;;;;21.49;39.68;101807.70;110219;1262;18848;-39
2023/05/31 03:40:43;;;;;;;;;7.00;7.00;;;;;21.49;39.65;101807.00;110186;1248;18344;-40
2023/05/31 03:43:11;;;;;;;;;7.50;7.00;;;;;21.50;39.66;101814.90;110190;1248;20650;-40
2023/05/31 03:45:38;;;;;;;;;7.00;7.00;;;;;21.49;39.69;101814.23;110207;1262;21598;-38
2023/05/31 03:48:06;;;;;;;;;7.00;5.00;;;;;21.50;39.78;101816.34;110209;1263;19731;-38
2023/05/31 03:50:33;;;;;;;;;9.00;7.00;;;;;21.50;39.73;101817.16;110217;1262;19211;-38
2023/05/31 03:53:00;;;;;;;;;8.00;7.00;;;;;21.50;39.78;101819.09;110228;1262;18511;-38
2023/05/31 03:55:28;;;;;;;;;7.00;7.00;;;;;21.50;39.70;101819.45;110208;1262;20542;-38
2023/05/31 03:57:56;;;;;;;;;8.00;8.00;;;;;21.50;39.73;101814.50;110227;1257;23067;-41
2023/05/31 04:00:23;;;;;;;;;7.00;7.00;;;;;21.50;39.75;101818.93;110246;1248;20243;-38
2023/05/31 04:02:51;;;;;;;;;7.00;7.00;;;;;21.49;39.85;101818.83;110239;1262;19552;-38
2023/05/31 04:05:18;;;;;;;;;8.00;7.00;;;;;21.51;39.90;101822.29;110206;1263;19119;-38
2023/05/31 04:07:46;;;;;;;;;5.00;5.00;;;;;21.49;39.85;101819.68;110209;1248;23236;-39
2023/05/31 04:10:14;;;;;;;;;7.00;7.00;;;;;21.47;39.91;101823.55;110244;1248;18546;-39
2023/05/31 04:12:41;;;;;;;;;10.00;8.00;;;;;21.44;39.99;101822.05;110234;1262;17862;-39
2023/05/31 04:15:08;;;;;;;;;8.00;7.00;;;;;21.44;40.19;101827.02;110213;1249;19962;-39
2023/05/31 04:17:36;;;;;;;;;7.00;7.00;;;;;21.42;40.42;101826.30;110250;1251;20422;-39
2023/05/31 04:20:07;;;;;;;;;8.00;8.00;;;;;21.41;40.33;101830.26;110220;1248;19266;-40
2023/05/31 04:22:35;;;;;;;;;7.00;7.00;;;;;21.38;40.50;101829.24;110300;1251;20224;-40
2023/05/31 04:25:03;;;;;;;;;7.00;7.00;;;;;21.37;40.70;101828.25;110316;1248;18183;-38
2023/05/31 04:27:32;;;;;;;;;7.67;7.67;;;;;21.35;40.67;101831.02;110273;1263;19408;-38
2023/05/31 04:30:00;;;;;;;;;8.00;8.00;;;;;21.34;40.73;101831.23;110217;1257;21656;-39
2023/05/31 04:32:28;;;;;;;;;7.00;7.00;;;;;21.34;40.79;101830.52;110245;1263;18220;-38
2023/05/31 04:34:57;;;;;;;;;7.00;7.00;;;;;21.33;41.12;101833.00;110254;1248;19449;-42
2023/05/31 04:37:25;;;;;;;;;8.00;8.00;;;;;21.31;40.97;101830.10;110260;1256;21979;-38
2023/05/31 04:39:53;;;;;;;;;7.33;6.33;;;;;21.31;41.03;101833.23;110229;1263;19559;-38
2023/05/31 04:42:21;;;;;;;;;8.00;7.50;;;;;21.30;41.08;101829.86;110230;1248;17908;-38
2023/05/31 04:44:49;;;;;;;;;10.00;8.00;;;;;21.30;41.34;101828.79;110223;1256;21650;-39
2023/05/31 04:47:17;;;;;;;;;8.00;7.00;;;;;21.31;41.33;101827.20;110238;1262;18164;-39
2023/05/31 04:49:45;;;;;;;;;10.00;8.00;;;;;21.30;41.43;101822.02;110222;1263;21938;-38
2023/05/31 04:52:12;;;;;;;;;7.00;7.00;;;;;21.30;41.47;101820.93;110204;1248;20062;-39
2023/05/31 04:54:40;;;;;;;;;8.00;7.00;;;;;21.30;41.62;101822.09;110214;1262;18627;-38
2023/05/31 04:57:08;;;;;;;;;8.00;8.00;;;;;21.30;41.58;101827.30;110214;1263;21215;-38
2023/05/31 04:59:35;;;;;;;;;7.00;5.00;;;;;21.31;41.73;101825.33;110214;1262;19891;-38
2023/05/31 05:02:03;;;;;;;;;8.00;8.00;;;;;21.31;41.85;101826.14;110214;1251;19680;-37
2023/05/31 05:04:30;;;;;;;;;7.50;7.50;;;;;21.30;41.79;101826.21;110176;1250;20131;-39
2023/05/31 05:06:58;;;;;;;;;8.00;8.00;;;;;21.31;41.79;101827.77;110182;1257;20192;-39
2023/05/31 05:09:25;;;;;;;;;9.00;9.00;;;;;21.31;41.73;101826.14;110170;1248;19538;-39
2023/05/31 05:11:55;;;;;;;;;7.00;7.00;;;;;21.31;41.90;101826.31;110162;1263;19107;-39
2023/05/31 05:14:23;;;;;;;;;7.00;7.00;;;;;21.29;41.98;101823.20;110175;1263;21588;-39
2023/05/31 05:16:50;;;;;;;;;5.67;5.00;;;;;21.29;41.89;101823.91;110170;1263;18339;-39
2023/05/31 05:19:17;;;;;;;;;7.00;5.67;;;;;21.31;42.03;101820.14;110190;1251;19460;-39
2023/05/31 05:21:45;;;;;;;;;7.00;7.00;;;;;21.34;42.12;101817.64;110243;1248;20417;-39
2023/05/31 05:24:12;;;;;;;;;11.00;10.00;;;;;21.05;42.53;101814.88;110252;1263;18122;-41
2023/05/31 05:26:40;;;;;;;;;14.00;13.00;;;;;20.61;43.65;101814.56;110221;1248;22994;-38
2023/05/31 05:29:07;;;;;;;;;15.33;14.00;;;;;20.54;44.40;101810.27;110193;1262;20156;-39
2023/05/31 05:31:35;;;;;;;;;23.00;21.00;;;;;20.59;44.52;101804.39;110221;1263;21061;-39
2023/05/31 05:34:02;;;;;;;;;15.33;14.67;;;;;20.60;44.91;101806.65;110275;1262;22467;-38
2023/05/31 05:36:29;;;;;;;;;12.00;10.50;;;;;20.57;45.25;101805.70;110255;1262;19913;-38
2023/05/31 05:39:03;;;;;;;;;11.00;11.00;;;;;20.59;45.07;101802.56;110233;1251;20013;-39
2023/05/31 05:41:31;;;;;;;;;9.00;8.00;;;;;20.64;44.98;101798.84;110222;1257;23224;-40
2023/05/31 05:43:58;;;;;;;;;8.00;8.00;;;;;20.64;44.99;101795.36;110233;1262;19879;-38
2023/05/31 05:46:26;;;;;;;;;10.67;8.00;;;;;20.72;45.27;101796.86;110237;1248;22155;-39
2023/05/31 05:48:53;;;;;;;;;10.50;9.00;;;;;20.83;44.85;101794.42;110244;1262;19443;-38
2023/05/31 05:51:21;;;;;;;;;7.50;5.00;;;;;20.82;44.72;101793.41;110215;1262;19638;-38
2023/05/31 05:53:49;;;;;;;;;8.00;7.50;;;;;20.76;44.67;101787.39;110256;1262;21952;-38
2023/05/31 05:56:18;;;;;;;;;8.00;8.00;;;;;20.66;45.09;101788.25;110227;1251;19364;-39
2023/05/31 05:58:46;;;;;;;;;5.00;5.00;;;;;20.61;45.14;101786.38;110254;1251;20033;-39
2023/05/31 06:01:18;;;;;;;;;7.00;7.00;;;;;20.61;45.33;101784.02;110271;1262;18178;-39
2023/05/31 06:03:45;;;;;;;;;5.00;5.00;;;;;20.62;45.27;101784.34;110251;1248;21851;-40
2023/05/31 06:06:13;;;;;;;;;6.00;6.00;;;;;20.71;45.08;101787.70;110266;1262;18721;-38
2023/05/31 06:08:40;;;;;;;;;4.00;4.00;;;;;20.77;44.70;101782.95;110270;1262;19535;-39
2023/05/31 06:11:08;;;;;;;;;4.00;4.00;;;;;20.71;44.57;101784.10;110239;1263;17894;-39
2023/05/31 06:13:35;;;;;;;;;8.00;7.00;;;;;20.77;44.40;101785.66;110257;1263;19937;-42
2023/05/31 06:16:03;;;;;;;;;4.50;4.50;;;;;20.71;44.21;101786.64;110308;1263;18189;-38
2023/05/31 06:18:30;;;;;;;;;10.67;10.00;;;;;20.51;45.00;101787.83;110308;1262;19557;-38
2023/05/31 06:20:58;;;;;;;;;10.00;5.00;;;;;20.59;45.38;101785.10;110262;1257;19964;-38
2023/05/31 06:23:25;;;;;;;;;13.50;13.00;;;;;20.70;45.42;101782.20;110233;1262;18604;-39
2023/05/31 06:25:53;;;;;;;;;10.00;8.00;;;;;20.76;45.66;101783.20;110256;1263;19772;-39
2023/05/31 06:28:20;;;;;;;;;10.33;10.00;;;;;20.81;45.50;101782.38;110205;1248;21269;-39
2023/05/31 06:30:48;;;;;;;;;13.00;11.00;;;;;20.87;45.30;101777.58;110201;1251;22151;-40
2023/05/31 06:33:15;;;;;;;;;8.00;8.00;;;;;20.97;45.42;101777.70;110199;1262;18138;-40
2023/05/31 06:35:44;;;;;;;;;7.00;7.00;;;;;20.96;45.27;101772.17;110236;1262;20036;-39
2023/05/31 06:38:14;;;;;;;;;8.00;7.00;;;;;20.99;45.12;101772.53;110189;1248;21155;-40
2023/05/31 06:40:42;;;;;;;;;7.00;7.00;;;;;21.00;44.45;101771.94;110204;1263;19608;-39
2023/05/31 06:43:10;;;;;;;;;4.33;4.33;;;;;21.01;44.03;101770.55;110262;1262;18570;-39
2023/05/31 06:45:41;;;;;;;;;4.00;4.00;;;;;21.06;43.67;101764.02;110280;1262;22114;-40
2023/05/31 06:48:09;;;;;;;;;4.33;4.33;;;;;21.06;43.10;101758.38;110303;1262;21459;-39
2023/05/31 06:50:36;;;;;;;;;4.00;4.00;;;;;21.09;42.77;101757.27;110240;1262;20517;-39
2023/05/31 06:53:04;;;;;;;;;4.00;4.00;;;;;21.10;42.16;101755.85;110265;1263;18324;-38
2023/05/31 06:55:31;;;;;;;;;4.33;4.00;;;;;21.08;41.72;101753.55;110271;1262;21662;-38
2023/05/31 06:57:59;;;;;;;;;4.00;4.00;;;;;21.13;41.39;101751.08;110241;1263;19920;-38
2023/05/31 07:00:26;;;;;;;;;4.00;4.00;;;;;21.15;41.19;101752.27;110206;1262;20951;-41
2023/05/31 07:02:54;;;;;;;;;2.00;2.00;;;;;21.20;41.01;101739.80;110221;1262;19173;-38
2023/05/31 07:05:21;;;;;;;;;4.00;4.00;;;;;21.22;40.88;101741.55;110204;1263;21057;-38
2023/05/31 07:07:49;;;;;;;;;3.00;3.00;;;;;21.20;40.59;101738.13;110223;1263;19200;-38
2023/05/31 07:10:16;;;;;;;;;4.00;4.00;;;;;21.22;40.75;101738.46;110226;1262;17883;-39
2023/05/31 07:12:44;;;;;;;;;4.00;4.00;;;;;21.22;40.64;101736.08;110231;1262;19814;-38
2023/05/31 07:15:11;;;;;;;;;6.00;5.00;;;;;21.25;40.79;101734.21;110237;1248;19718;-39
2023/05/31 07:17:39;;;;;;;;;4.00;4.00;;;;;21.37;40.64;101737.70;110234;1262;21807;-38
2023/05/31 07:20:07;;;;;;;;;5.00;5.00;;;;;21.45;40.62;101739.20;110232;1263;22077;-41
2023/05/31 07:22:35;;;;;;;;;4.00;4.00;;;;;21.47;40.05;101738.62;110227;1251;19607;-38
2023/05/31 07:25:03;;;;;;;;;4.00;4.00;;;;;21.40;39.62;101739.40;110246;1262;19330;-38
2023/05/31 07:27:31;;;;;;;;;4.50;3.00;;;;;21.36;39.07;101740.11;110243;1248;20312;-39
2023/05/31 07:29:58;;;;;;;;;5.00;5.00;;;;;21.30;38.69;101737.52;110273;1262;21989;-39
2023/05/31 07:32:26;;;;;;;;;5.00;5.00;;;;;21.33;38.86;101736.23;110268;1262;17882;-42
2023/05/31 07:34:53;;;;;;;;;20.00;14.00;;;;;21.44;38.63;101731.11;110250;1262;19996;-39
2023/05/31 07:37:20;;;;;;;;;11.00;10.50;;;;;21.56;38.47;101722.22;110239;1251;19999;-39
2023/05/31 07:39:48;;;;;;;;;7.00;7.00;;;;;21.63;38.51;101722.88;110220;1263;19455;-41
2023/05/31 07:42:15;;;;;;;;;5.00;5.00;;;;;21.64;38.01;101716.20;110236;1263;18534;-41
2023/05/31 07:44:43;;;;;;;;;8.00;5.00;;;;;21.61;37.59;101711.16;110222;1263;21548;-40
2023/05/31 07:47:10;;;;;;;;;4.50;4.50;;;;;21.62;37.42;101704.92;110208;1262;19361;-37
2023/05/31 07:49:37;;;;;;;;;4.00;4.00;;;;;21.63;37.37;101706.50;110226;1248;20139;-38
2023/05/31 07:52:05;;;;;;;;;5.00;4.00;;;;;21.63;37.11;101707.56;110216;1262;19558;-38
2023/05/31 07:54:32;;;;;;;;;3.33;3.33;;;;;21.60;36.58;101702.92;110238;1248;19453;-39
2023/05/31 07:57:00;;;;;;;;;2.00;2.00;;;;;21.58;36.24;101701.45;110236;1248;21207;-39
2023/05/31 07:59:27;;;;;;;;;2.00;2.00;;;;;21.75;35.94;101701.52;110201;1251;22083;-38
2023/05/31 08:01:55;;;;;;;;;5.00;4.50;;;;;21.79;35.99;101695.09;110245;1262;19280;-39
2023/05/31 08:04:22;;;;;;;;;2.00;2.00;;;;;21.89;36.02;101698.12;110238;1263;18570;-40
2023/05/31 08:06:50;;;;;;;;;2.00;2.00;;;;;22.03;35.59;101692.98;110247;1262;18314;-40
2023/05/31 08:09:18;;;;;;;;;3.00;3.00;;;;;22.02;35.76;101683.99;110243;1248;19355;-40
2023/05/31 08:11:45;;;;;;;;;2.00;2.00;;;;;21.93;35.77;101679.11;110258;1262;18577;-41
2023/05/31 08:14:13;;;;;;;;;4.00;2.00;;;;;21.99;35.91;101677.56;110228;1262;19785;-39
2023/05/31 08:16:40;;;;;;;;;4.00;4.00;;;;;21.86;36.04;101681.66;110230;1262;17879;-39
2023/05/31 08:19:08;;;;;;;;;4.00;4.00;;;;;21.96;35.88;101682.64;110226;1262;18537;-38
2023/05/31 08:21:36;;;;;;;;;2.00;2.00;;;;;22.15;35.69;101684.08;110218;1263;18265;-39
2023/05/31 08:24:05;;;;;;;;;4.00;4.00;;;;;22.09;35.62;101682.30;110253;1263;19234;-39
2023/05/31 08:26:33;;;;;;;;;5.00;5.00;;;;;22.14;35.86;101685.80;110249;1262;18429;-39
2023/05/31 08:29:01;;;;;;;;;9.00;8.00;;;;;22.22;35.91;101680.30;110283;1262;19562;-39
2023/05/31 08:31:28;;;;;;;;;5.00;5.00;;;;;22.21;35.81;101678.00;110216;1262;22079;-39
2023/05/31 08:33:56;;;;;;;;;4.67;4.00;;;;;22.20;35.27;101683.05;110225;1251;20102;-40
2023/05/31 08:36:23;;;;;;;;;3.00;3.00;;;;;22.12;34.90;101678.73;110237;1250;20126;-39
2023/05/31 08:38:51;;;;;;;;;4.00;4.00;;;;;22.21;34.68;101672.52;110211;1248;21936;-40
2023/05/31 08:41:18;;;;;;;;;4.00;4.00;;;;;22.28;34.54;101665.79;110211;1262;20264;-38
2023/05/31 08:43:46;;;;;;;;;4.00;4.00;;;;;22.26;34.56;101665.45;110225;1256;18151;-41
2023/05/31 08:46:13;;;;;;;;;2.00;2.00;;;;;22.30;34.39;101673.90;110227;1262;18239;-39
2023/05/31 08:48:41;;;;;;;;;2.00;2.00;;;;;22.29;34.18;101667.27;110235;1263;18558;-38
2023/05/31 08:51:08;;;;;;;;;2.00;2.00;;;;;22.22;33.85;101673.35;110275;1263;21550;-38
2023/05/31 08:53:35;;;;;;;;;2.00;2.00;;;;;22.09;33.69;101675.59;110223;1262;19149;-42
2023/05/31 08:56:04;;;;;;;;;6.00;5.00;;;;;22.15;33.23;101666.64;110266;1262;18912;-42
2023/05/31 08:58:32;;;;;;;;;5.00;4.00;;;;;22.32;33.14;101660.08;110245;1247;19562;-40
2023/05/31 09:00:59;;;;;;;;;4.00;3.00;;;;;22.41;32.94;101657.27;110241;1262;21191;-38
2023/05/31 09:03:27;;;;;;;;;3.33;2.00;;;;;22.47;33.41;101664.42;110267;1262;18899;-39
2023/05/31 09:05:54;;;;;;;;;2.00;2.00;;;;;22.54;33.29;101660.55;110232;1262;19059;-39
2023/05/31 09:08:21;;;;;;;;;2.00;2.00;;;;;22.58;33.57;101662.23;110255;1256;19248;-39
2023/05/31 09:10:49;;;;;;;;;4.50;4.00;;;;;22.42;34.15;101661.71;110277;1251;19981;-38
2023/05/31 09:13:16;;;;;;;;;4.00;4.00;;;;;22.27;34.68;101660.35;110258;1262;18409;-43
2023/05/31 09:15:44;;;;;;;;;5.00;4.00;;;;;22.38;34.70;101661.15;110232;1262;20482;-38
2023/05/31 09:18:12;;;;;;;;;3.00;2.00;;;;;22.45;34.35;101658.67;110260;1247;18525;-38
2023/05/31 09:20:39;;;;;;;;;2.00;2.00;;;;;22.50;33.88;101657.37;110244;1262;19273;-38
2023/05/31 09:23:07;;;;;;;;;4.00;4.00;;;;;22.48;33.60;101655.45;110248;1262;17867;-40
2023/05/31 09:25:35;;;;;;;;;4.00;4.00;;;;;22.45;33.52;101659.58;110269;1251;22299;-39
2023/05/31 09:28:02;;;;;;;;;5.00;4.00;;;;;22.44;33.43;101657.66;110243;1262;18509;-38
2023/05/31 09:30:30;;;;;;;;;4.00;2.00;;;;;22.50;33.28;101656.79;110252;1250;19629;-38
2023/05/31 09:32:57;;;;;;;;;4.00;3.00;;;;;22.50;32.86;101656.08;110211;1251;20089;-41
2023/05/31 09:35:27;;;;;;;;;4.00;4.00;;;;;22.53;32.99;101655.02;110226;1262;18217;-39
2023/05/31 09:37:56;;;;;;;;;3.00;3.00;;;;;22.49;32.74;101652.92;110280;1248;21577;-39
2023/05/31 09:40:23;;;;;;;;;14.00;14.00;;;;;22.45;32.46;101648.13;110239;1262;18435;-39
2023/05/31 09:42:51;;;;;;;;;14.00;14.00;;;;;22.49;32.16;101650.77;110220;1251;19699;-39
2023/05/31 09:45:18;;;;;;;;;11.00;8.00;;;;;22.49;32.16;101645.13;110271;1262;18114;-39
2023/05/31 09:47:45;;;;;;;;;8.00;8.00;;;;;22.46;32.30;101646.36;110253;1250;20117;-39
2023/05/31 09:50:13;;;;;;;;;7.00;5.00;;;;;22.54;32.31;101645.67;110253;1249;20066;-40
2023/05/31 09:52:40;;;;;;;;;5.00;5.00;;;;;22.54;31.83;101639.79;110235;1263;19573;-43
2023/05/31 09:55:08;;;;;;;;;4.00;4.00;;;;;22.57;32.05;101635.05;110245;1257;22207;-39
2023/05/31 09:57:40;;;;;;;;;4.00;4.00;;;;;22.61;32.15;101636.46;110241;1248;19562;-39
2023/05/31 10:00:12;;;;;;;;;2.00;2.00;;;;;22.62;32.13;101631.81;110266;1262;17907;-39
2023/05/31 10:02:40;;;;;;;;;4.00;4.00;;;;;22.73;31.62;101628.98;110257;1263;21924;-38
2023/05/31 10:05:08;;;;;;;;;9.00;8.00;;;;;22.78;31.48;101624.96;110260;1262;19362;-39
2023/05/31 10:07:36;;;;;;;;;4.00;4.00;;;;;22.76;31.78;101622.69;110275;1257;19614;-40
2023/05/31 10:10:04;;;;;;;;;8.50;8.00;;;;;22.73;31.34;101623.12;110288;1262;20150;-39
2023/05/31 10:12:31;;;;;;;;;11.50;10.00;;;;;22.65;31.29;101622.36;110308;1262;18216;-41
2023/05/31 10:14:59;;;;;;;;;5.00;5.00;;;;;22.64;31.46;101619.45;110208;1248;18363;-39
2023/05/31 10:17:26;;;;;;;;;7.00;5.00;;;;;22.62;30.99;101616.86;110231;1251;20053;-41
2023/05/31 10:19:53;;;;;;;;;3.00;3.00;;;;;22.56;31.15;101610.10;110240;1262;19570;-40
2023/05/31 10:22:21;;;;;;;;;4.00;4.00;;;;;22.56;31.40;101607.66;110228;1248;22396;-39
2023/05/31 10:24:48;;;;;;;;;5.00;4.00;;;;;22.59;31.61;101604.08;110230;1262;18863;-40
2023/05/31 10:27:16;;;;;;;;;5.00;4.67;;;;;22.56;31.51;101603.48;110229;1248;20282;-39
2023/05/31 10:29:44;;;;;;;;;4.00;4.00;;;;;22.54;31.81;101595.67;110239;1263;20805;-38
2023/05/31 10:32:11;;;;;;;;;4.00;4.00;;;;;22.48;32.05;101600.54;110230;1263;19907;-39
2023/05/31 10:34:38;;;;;;;;;4.00;4.00;;;;;22.52;32.38;101597.36;110253;1248;22060;-39
2023/05/31 10:37:06;;;;;;;;;4.00;4.00;;;;;22.65;32.04;101591.45;110186;1248;19262;-39
2023/05/31 10:39:33;;;;;;;;;4.00;4.00;;;;;22.70;32.38;101592.31;110181;1256;18771;-39
2023/05/31 10:42:01;;;;;;;;;4.00;4.00;;;;;22.61;32.66;101593.15;110233;1248;23114;-39
2023/05/31 10:44:31;;;;;;;;;4.00;4.00;;;;;22.58;32.82;101591.09;110254;1262;19549;-39
2023/05/31 10:46:58;;;;;;;;;2.00;2.00;;;;;22.68;33.09;101591.64;110289;1263;22009;-39
2023/05/31 10:49:26;;;;;;;;;4.00;4.00;;;;;22.63;33.25;101586.73;110274;1251;18179;-40
2023/05/31 10:51:53;;;;;;;;;2.00;2.00;;;;;22.57;33.00;101588.88;110250;1262;19249;-39
2023/05/31 10:54:21;;;;;;;;;7.00;7.00;;;;;22.46;33.03;101589.33;110233;1257;19966;-38
2023/05/31 10:56:48;;;;;;;;;4.00;4.00;;;;;22.46;32.67;101577.65;110247;1262;18214;-39
2023/05/31 10:59:15;;;;;;;;;2.00;2.00;;;;;22.43;32.54;101576.52;110192;1248;20205;-37
2023/05/31 11:01:43;;;;;;;;;5.00;5.00;;;;;22.49;32.72;101574.58;110271;1248;18691;-37
2023/05/31 11:04:10;;;;;;;;;5.00;5.00;;;;;22.56;32.88;101571.78;110282;1262;19614;-40
2023/05/31 11:06:38;;;;;;;;;5.00;5.00;;;;;22.62;33.15;101572.04;110239;1248;17878;-38
2023/05/31 11:09:08;;;;;;;;;5.00;4.00;;;;;22.62;32.93;101568.45;110280;1248;20542;-38
2023/05/31 11:11:35;;;;;;;;;4.50;4.00;;;;;22.67;33.00;101566.64;110286;1256;20074;-40
2023/05/31 11:14:03;;;;;;;;;5.00;5.00;;;;;22.70;32.84;101568.08;110290;1263;19252;-38
2023/05/31 11:16:31;;;;;;;;;4.67;4.00;;;;;22.71;32.74;101568.95;110228;1262;18578;-38
2023/05/31 11:18:58;;;;;;;;;5.33;4.33;;;;;22.71;32.62;101561.98;110280;1248;19457;-38